sensor_id;sensor_type;location;lat;lon;timestamp;P1;durP1;ratioP1;P2;durP2;ratioP2
1346;SDS011;667;48.796;9.480;2023-05-23T00:02:16;13.83;;;12.53;;
1346;SDS011;667;48.796;9.480;2023-05-23T00:04:42;13.90;;;12.60;;
1346;SDS011;667;48.796;9.480;2023-05-23T00:07:08;13.70;;;12.50;;
1346;SDS011;667;48.796;9.480;2023-05-23T00:09:34;13.40;;;12.20;;
1346;SDS011;667;48.796;9.480;2023-05-23T00:12:00;13.83;;;12.63;;
1346;SDS011;667;48.796;9.480;2023-05-23T00:14:26;14.40;;;13.00;;
1346;SDS011;667;48.796;9.480;2023-05-23T00:16:51;13.93;;;12.73;;
1346;SDS011;667;48.796;9.480;2023-05-23T00:19:17;13.73;;;12.40;;
1346;SDS011;667;48.796;9.480;2023-05-23T00:21:44;14.30;;;13.10;;
1346;SDS011;667;48.796;9.480;2023-05-23T00:24:12;14.73;;;13.27;;
1346;SDS011;667;48.796;9.480;2023-05-23T00:26:42;14.37;;;13.07;;
1346;SDS011;667;48.796;9.480;2023-05-23T00:29:08;14.53;;;13.33;;
1346;SDS011;667;48.796;9.480;2023-05-23T00:31:39;14.57;;;13.20;;
1346;SDS011;667;48.796;9.480;2023-05-23T00:34:05;13.57;;;12.37;;
1346;SDS011;667;48.796;9.480;2023-05-23T00:36:30;13.60;;;12.30;;
1346;SDS011;667;48.796;9.480;2023-05-23T00:39:01;15.47;;;13.93;;
1346;SDS011;667;48.796;9.480;2023-05-23T00:41:29;13.53;;;12.33;;
1346;SDS011;667;48.796;9.480;2023-05-23T00:43:55;14.10;;;12.90;;
1346;SDS011;667;48.796;9.480;2023-05-23T00:46:23;14.17;;;12.77;;
1346;SDS011;667;48.796;9.480;2023-05-23T00:48:53;14.13;;;12.83;;
1346;SDS011;667;48.796;9.480;2023-05-23T00:51:19;13.83;;;12.63;;
1346;SDS011;667;48.796;9.480;2023-05-23T00:53:45;13.13;;;11.93;;
1346;SDS011;667;48.796;9.480;2023-05-23T00:56:11;14.10;;;12.70;;
1346;SDS011;667;48.796;9.480;2023-05-23T00:58:37;13.40;;;12.00;;
1346;SDS011;667;48.796;9.480;2023-05-23T01:01:04;14.53;;;13.23;;
1346;SDS011;667;48.796;9.480;2023-05-23T01:03:30;13.20;;;12.00;;
1346;SDS011;667;48.796;9.480;2023-05-23T01:05:56;14.37;;;12.87;;
1346;SDS011;667;48.796;9.480;2023-05-23T01:08:21;13.83;;;12.53;;
1346;SDS011;667;48.796;9.480;2023-05-23T01:10:47;12.97;;;11.60;;
1346;SDS011;667;48.796;9.480;2023-05-23T01:13:24;14.17;;;12.73;;
1346;SDS011;667;48.796;9.480;2023-05-23T01:16:06;14.37;;;13.07;;
1346;SDS011;667;48.796;9.480;2023-05-23T01:18:46;14.70;;;13.10;;
1346;SDS011;667;48.796;9.480;2023-05-23T01:21:21;15.43;;;13.83;;
1346;SDS011;667;48.796;9.480;2023-05-23T01:29:27;14.67;;;13.27;;
1346;SDS011;667;48.796;9.480;2023-05-23T01:31:57;13.43;;;12.23;;
1346;SDS011;667;48.796;9.480;2023-05-23T01:34:24;13.90;;;12.50;;
1346;SDS011;667;48.796;9.480;2023-05-23T01:36:53;13.80;;;12.50;;
1346;SDS011;667;48.796;9.480;2023-05-23T01:39:22;14.73;;;13.20;;
1346;SDS011;667;48.796;9.480;2023-05-23T01:41:48;14.40;;;13.10;;
1346;SDS011;667;48.796;9.480;2023-05-23T01:44:15;15.67;;;14.27;;
1346;SDS011;667;48.796;9.480;2023-05-23T01:46:41;15.10;;;13.60;;
1346;SDS011;667;48.796;9.480;2023-05-23T01:49:09;16.90;;;15.20;;
1346;SDS011;667;48.796;9.480;2023-05-23T01:51:36;15.37;;;13.70;;
1346;SDS011;667;48.796;9.480;2023-05-23T01:54:03;17.00;;;15.27;;
1346;SDS011;667;48.796;9.480;2023-05-23T01:56:29;17.57;;;15.73;;
1346;SDS011;667;48.796;9.480;2023-05-23T01:58:55;15.87;;;14.27;;
1346;SDS011;667;48.796;9.480;2023-05-23T02:01:20;16.20;;;14.70;;
1346;SDS011;667;48.796;9.480;2023-05-23T02:03:46;17.77;;;16.00;;
1346;SDS011;667;48.796;9.480;2023-05-23T02:06:11;16.60;;;15.00;;
1346;SDS011;667;48.796;9.480;2023-05-23T02:08:37;16.20;;;14.60;;
1346;SDS011;667;48.796;9.480;2023-05-23T02:11:03;17.43;;;15.63;;
1346;SDS011;667;48.796;9.480;2023-05-23T02:13:28;18.43;;;16.63;;
1346;SDS011;667;48.796;9.480;2023-05-23T02:15:54;15.57;;;14.07;;
1346;SDS011;667;48.796;9.480;2023-05-23T02:18:20;17.63;;;15.83;;
1346;SDS011;667;48.796;9.480;2023-05-23T02:20:45;16.87;;;15.17;;
1346;SDS011;667;48.796;9.480;2023-05-23T02:23:11;19.73;;;16.43;;
1346;SDS011;667;48.796;9.480;2023-05-23T02:25:36;19.50;;;17.60;;
1346;SDS011;667;48.796;9.480;2023-05-23T02:28:02;18.53;;;16.63;;
1346;SDS011;667;48.796;9.480;2023-05-23T02:30:28;19.90;;;17.90;;
1346;SDS011;667;48.796;9.480;2023-05-23T02:32:53;20.13;;;17.67;;
1346;SDS011;667;48.796;9.480;2023-05-23T02:35:19;20.60;;;17.23;;
1346;SDS011;667;48.796;9.480;2023-05-23T02:37:46;20.03;;;17.13;;
1346;SDS011;667;48.796;9.480;2023-05-23T02:40:11;20.43;;;17.30;;
1346;SDS011;667;48.796;9.480;2023-05-23T02:42:37;20.77;;;18.67;;
1346;SDS011;667;48.796;9.480;2023-05-23T02:45:02;20.60;;;18.40;;
1346;SDS011;667;48.796;9.480;2023-05-23T02:47:28;21.70;;;18.37;;
1346;SDS011;667;48.796;9.480;2023-05-23T02:49:54;21.10;;;17.83;;
1346;SDS011;667;48.796;9.480;2023-05-23T02:52:19;43.53;;;37.97;;
1346;SDS011;667;48.796;9.480;2023-05-23T02:54:45;18.67;;;15.90;;
1346;SDS011;667;48.796;9.480;2023-05-23T02:57:11;19.37;;;17.37;;
1346;SDS011;667;48.796;9.480;2023-05-23T02:59:36;20.10;;;18.07;;
1346;SDS011;667;48.796;9.480;2023-05-23T03:02:02;21.20;;;18.97;;
1346;SDS011;667;48.796;9.480;2023-05-23T03:04:28;18.57;;;16.60;;
1346;SDS011;667;48.796;9.480;2023-05-23T03:06:53;19.27;;;17.27;;
1346;SDS011;667;48.796;9.480;2023-05-23T03:09:19;19.77;;;17.67;;
1346;SDS011;667;48.796;9.480;2023-05-23T03:11:45;20.20;;;18.10;;
1346;SDS011;667;48.796;9.480;2023-05-23T03:14:10;23.50;;;18.97;;
1346;SDS011;667;48.796;9.480;2023-05-23T03:16:36;22.57;;;20.13;;
1346;SDS011;667;48.796;9.480;2023-05-23T03:19:02;24.33;;;21.13;;
1346;SDS011;667;48.796;9.480;2023-05-23T03:21:28;23.53;;;19.67;;
1346;SDS011;667;48.796;9.480;2023-05-23T03:23:55;21.77;;;19.60;;
1346;SDS011;667;48.796;9.480;2023-05-23T03:26:20;22.60;;;20.10;;
1346;SDS011;667;48.796;9.480;2023-05-23T03:28:47;22.07;;;19.87;;
1346;SDS011;667;48.796;9.480;2023-05-23T03:31:13;22.40;;;19.90;;
1346;SDS011;667;48.796;9.480;2023-05-23T03:33:39;22.40;;;20.07;;
1346;SDS011;667;48.796;9.480;2023-05-23T03:36:04;23.27;;;20.87;;
1346;SDS011;667;48.796;9.480;2023-05-23T03:38:30;28.03;;;22.77;;
1346;SDS011;667;48.796;9.480;2023-05-23T03:40:56;38.70;;;31.23;;
1346;SDS011;667;48.796;9.480;2023-05-23T03:43:21;30.97;;;25.47;;
1346;SDS011;667;48.796;9.480;2023-05-23T03:45:47;32.27;;;27.87;;
1346;SDS011;667;48.796;9.480;2023-05-23T03:48:13;34.90;;;29.87;;
1346;SDS011;667;48.796;9.480;2023-05-23T03:50:38;41.60;;;31.83;;
1346;SDS011;667;48.796;9.480;2023-05-23T03:53:04;29.23;;;24.70;;
1346;SDS011;667;48.796;9.480;2023-05-23T03:55:30;31.20;;;27.00;;
1346;SDS011;667;48.796;9.480;2023-05-23T03:57:56;27.80;;;24.40;;
1346;SDS011;667;48.796;9.480;2023-05-23T04:00:22;28.73;;;25.73;;
1346;SDS011;667;48.796;9.480;2023-05-23T04:02:47;30.57;;;24.50;;
1346;SDS011;667;48.796;9.480;2023-05-23T04:05:14;27.73;;;23.60;;
1346;SDS011;667;48.796;9.480;2023-05-23T04:07:40;29.97;;;23.83;;
1346;SDS011;667;48.796;9.480;2023-05-23T04:10:06;32.70;;;25.00;;
1346;SDS011;667;48.796;9.480;2023-05-23T04:12:32;38.33;;;29.23;;
1346;SDS011;667;48.796;9.480;2023-05-23T04:14:58;42.43;;;31.77;;
1346;SDS011;667;48.796;9.480;2023-05-23T04:17:24;51.87;;;36.70;;
1346;SDS011;667;48.796;9.480;2023-05-23T04:19:50;47.63;;;36.10;;
1346;SDS011;667;48.796;9.480;2023-05-23T04:22:16;48.53;;;39.27;;
1346;SDS011;667;48.796;9.480;2023-05-23T04:24:41;52.73;;;40.60;;
1346;SDS011;667;48.796;9.480;2023-05-23T04:27:07;49.03;;;39.10;;
1346;SDS011;667;48.796;9.480;2023-05-23T04:29:33;56.10;;;40.53;;
1346;SDS011;667;48.796;9.480;2023-05-23T04:31:59;56.07;;;41.00;;
1346;SDS011;667;48.796;9.480;2023-05-23T04:34:30;55.07;;;42.83;;
1346;SDS011;667;48.796;9.480;2023-05-23T04:36:57;53.97;;;44.40;;
1346;SDS011;667;48.796;9.480;2023-05-23T04:39:29;63.00;;;45.50;;
1346;SDS011;667;48.796;9.480;2023-05-23T04:41:55;56.00;;;42.23;;
1346;SDS011;667;48.796;9.480;2023-05-23T04:44:23;59.57;;;43.17;;
1346;SDS011;667;48.796;9.480;2023-05-23T04:46:50;49.90;;;40.47;;
1346;SDS011;667;48.796;9.480;2023-05-23T04:49:16;58.23;;;42.17;;
1346;SDS011;667;48.796;9.480;2023-05-23T04:51:42;58.67;;;44.00;;
1346;SDS011;667;48.796;9.480;2023-05-23T04:54:07;56.30;;;41.70;;
1346;SDS011;667;48.796;9.480;2023-05-23T04:56:33;49.20;;;42.50;;
1346;SDS011;667;48.796;9.480;2023-05-23T04:58:59;58.47;;;45.97;;
1346;SDS011;667;48.796;9.480;2023-05-23T05:01:24;63.00;;;49.00;;
1346;SDS011;667;48.796;9.480;2023-05-23T05:03:50;56.93;;;46.70;;
1346;SDS011;667;48.796;9.480;2023-05-23T05:06:17;60.70;;;47.77;;
1346;SDS011;667;48.796;9.480;2023-05-23T05:08:42;72.70;;;52.40;;
1346;SDS011;667;48.796;9.480;2023-05-23T05:11:08;67.30;;;48.53;;
1346;SDS011;667;48.796;9.480;2023-05-23T05:13:34;64.53;;;48.47;;
1346;SDS011;667;48.796;9.480;2023-05-23T05:16:00;64.70;;;49.90;;
1346;SDS011;667;48.796;9.480;2023-05-23T05:18:27;65.87;;;51.10;;
1346;SDS011;667;48.796;9.480;2023-05-23T05:20:52;65.50;;;50.87;;
1346;SDS011;667;48.796;9.480;2023-05-23T05:23:18;60.83;;;47.80;;
1346;SDS011;667;48.796;9.480;2023-05-23T05:25:45;66.37;;;49.73;;
1346;SDS011;667;48.796;9.480;2023-05-23T05:28:10;64.17;;;50.13;;
1346;SDS011;667;48.796;9.480;2023-05-23T05:30:36;60.20;;;48.50;;
1346;SDS011;667;48.796;9.480;2023-05-23T05:33:02;62.53;;;49.30;;
1346;SDS011;667;48.796;9.480;2023-05-23T05:35:32;82.03;;;62.30;;
1346;SDS011;667;48.796;9.480;2023-05-23T05:37:58;63.03;;;49.33;;
1346;SDS011;667;48.796;9.480;2023-05-23T05:40:25;64.77;;;49.90;;
1346;SDS011;667;48.796;9.480;2023-05-23T05:42:50;60.00;;;48.87;;
1346;SDS011;667;48.796;9.480;2023-05-23T05:45:16;64.43;;;48.47;;
1346;SDS011;667;48.796;9.480;2023-05-23T05:47:43;61.73;;;47.10;;
1346;SDS011;667;48.796;9.480;2023-05-23T05:50:09;64.13;;;50.13;;
1346;SDS011;667;48.796;9.480;2023-05-23T05:52:35;59.47;;;47.57;;
1346;SDS011;667;48.796;9.480;2023-05-23T05:55:06;65.40;;;50.00;;
1346;SDS011;667;48.796;9.480;2023-05-23T05:57:35;57.73;;;46.37;;
1346;SDS011;667;48.796;9.480;2023-05-23T06:00:03;57.17;;;47.40;;
1346;SDS011;667;48.796;9.480;2023-05-23T06:02:36;60.60;;;47.93;;
1346;SDS011;667;48.796;9.480;2023-05-23T06:05:01;58.53;;;44.20;;
1346;SDS011;667;48.796;9.480;2023-05-23T06:07:28;53.40;;;46.80;;
1346;SDS011;667;48.796;9.480;2023-05-23T06:09:53;54.10;;;44.93;;
1346;SDS011;667;48.796;9.480;2023-05-23T06:12:19;56.70;;;44.10;;
1346;SDS011;667;48.796;9.480;2023-05-23T06:14:44;50.50;;;42.47;;
1346;SDS011;667;48.796;9.480;2023-05-23T06:17:10;54.50;;;44.87;;
1346;SDS011;667;48.796;9.480;2023-05-23T06:19:36;52.33;;;43.37;;
1346;SDS011;667;48.796;9.480;2023-05-23T06:22:02;56.70;;;46.57;;
1346;SDS011;667;48.796;9.480;2023-05-23T06:24:28;55.67;;;44.73;;
1346;SDS011;667;48.796;9.480;2023-05-23T06:26:53;58.43;;;46.13;;
1346;SDS011;667;48.796;9.480;2023-05-23T06:29:19;54.10;;;44.53;;
1346;SDS011;667;48.796;9.480;2023-05-23T06:31:44;51.03;;;44.47;;
1346;SDS011;667;48.796;9.480;2023-05-23T06:34:10;56.20;;;45.83;;
1346;SDS011;667;48.796;9.480;2023-05-23T06:36:36;52.97;;;45.40;;
1346;SDS011;667;48.796;9.480;2023-05-23T06:39:01;56.40;;;46.53;;
1346;SDS011;667;48.796;9.480;2023-05-23T06:41:27;58.60;;;44.43;;
1346;SDS011;667;48.796;9.480;2023-05-23T06:43:52;54.80;;;45.93;;
1346;SDS011;667;48.796;9.480;2023-05-23T06:46:18;58.13;;;45.53;;
1346;SDS011;667;48.796;9.480;2023-05-23T06:48:43;55.53;;;45.53;;
1346;SDS011;667;48.796;9.480;2023-05-23T06:51:09;57.63;;;46.57;;
1346;SDS011;667;48.796;9.480;2023-05-23T06:53:35;51.60;;;44.33;;
1346;SDS011;667;48.796;9.480;2023-05-23T06:56:00;53.27;;;46.80;;
1346;SDS011;667;48.796;9.480;2023-05-23T06:58:26;56.33;;;47.60;;
1346;SDS011;667;48.796;9.480;2023-05-23T07:00:52;57.50;;;46.23;;
1346;SDS011;667;48.796;9.480;2023-05-23T07:03:17;53.63;;;44.23;;
1346;SDS011;667;48.796;9.480;2023-05-23T07:05:43;52.07;;;44.53;;
1346;SDS011;667;48.796;9.480;2023-05-23T07:08:08;50.40;;;44.90;;
1346;SDS011;667;48.796;9.480;2023-05-23T07:10:35;48.13;;;42.60;;
1346;SDS011;667;48.796;9.480;2023-05-23T07:13:00;49.90;;;42.40;;
1346;SDS011;667;48.796;9.480;2023-05-23T07:15:26;50.07;;;43.23;;
1346;SDS011;667;48.796;9.480;2023-05-23T07:17:51;54.80;;;45.03;;
1346;SDS011;667;48.796;9.480;2023-05-23T07:20:17;46.60;;;40.93;;
1346;SDS011;667;48.796;9.480;2023-05-23T07:22:42;50.13;;;41.70;;
1346;SDS011;667;48.796;9.480;2023-05-23T07:25:09;48.87;;;41.43;;
1346;SDS011;667;48.796;9.480;2023-05-23T07:27:35;47.10;;;42.00;;
1346;SDS011;667;48.796;9.480;2023-05-23T07:30:00;46.67;;;41.67;;
1346;SDS011;667;48.796;9.480;2023-05-23T07:32:26;47.90;;;41.07;;
1346;SDS011;667;48.796;9.480;2023-05-23T07:34:52;46.67;;;41.97;;
1346;SDS011;667;48.796;9.480;2023-05-23T07:37:18;46.23;;;39.70;;
1346;SDS011;667;48.796;9.480;2023-05-23T07:39:43;47.50;;;41.90;;
1346;SDS011;667;48.796;9.480;2023-05-23T07:42:09;46.33;;;41.27;;
1346;SDS011;667;48.796;9.480;2023-05-23T07:44:34;50.00;;;40.70;;
1346;SDS011;667;48.796;9.480;2023-05-23T07:47:00;50.40;;;43.17;;
1346;SDS011;667;48.796;9.480;2023-05-23T07:49:26;45.23;;;40.40;;
1346;SDS011;667;48.796;9.480;2023-05-23T07:51:51;44.30;;;39.70;;
1346;SDS011;667;48.796;9.480;2023-05-23T07:54:17;45.47;;;40.60;;
1346;SDS011;667;48.796;9.480;2023-05-23T07:56:42;47.47;;;42.43;;
1346;SDS011;667;48.796;9.480;2023-05-23T07:59:08;44.83;;;40.17;;
1346;SDS011;667;48.796;9.480;2023-05-23T08:01:34;45.83;;;41.10;;
1346;SDS011;667;48.796;9.480;2023-05-23T08:04:00;45.40;;;40.20;;
1346;SDS011;667;48.796;9.480;2023-05-23T08:06:27;46.17;;;41.40;;
1346;SDS011;667;48.796;9.480;2023-05-23T08:08:53;41.60;;;37.47;;
1346;SDS011;667;48.796;9.480;2023-05-23T08:11:18;41.40;;;37.17;;
1346;SDS011;667;48.796;9.480;2023-05-23T08:13:44;41.70;;;37.50;;
1346;SDS011;667;48.796;9.480;2023-05-23T08:16:10;39.40;;;35.33;;
1346;SDS011;667;48.796;9.480;2023-05-23T08:18:35;40.13;;;36.10;;
1346;SDS011;667;48.796;9.480;2023-05-23T08:21:01;39.17;;;35.30;;
1346;SDS011;667;48.796;9.480;2023-05-23T08:23:27;38.80;;;34.80;;
1346;SDS011;667;48.796;9.480;2023-05-23T08:25:53;36.93;;;33.30;;
1346;SDS011;667;48.796;9.480;2023-05-23T08:28:19;34.63;;;31.13;;
1346;SDS011;667;48.796;9.480;2023-05-23T08:30:45;34.50;;;31.00;;
1346;SDS011;667;48.796;9.480;2023-05-23T08:33:10;33.10;;;29.77;;
1346;SDS011;667;48.796;9.480;2023-05-23T08:35:36;32.33;;;29.10;;
1346;SDS011;667;48.796;9.480;2023-05-23T08:38:03;34.10;;;30.50;;
1346;SDS011;667;48.796;9.480;2023-05-23T08:40:31;33.00;;;29.77;;
1346;SDS011;667;48.796;9.480;2023-05-23T08:42:58;32.07;;;28.97;;
1346;SDS011;667;48.796;9.480;2023-05-23T08:45:23;33.50;;;30.10;;
1346;SDS011;667;48.796;9.480;2023-05-23T08:47:50;33.10;;;29.77;;
1346;SDS011;667;48.796;9.480;2023-05-23T08:50:16;32.90;;;29.50;;
1346;SDS011;667;48.796;9.480;2023-05-23T08:53:03;32.70;;;29.43;;
1346;SDS011;667;48.796;9.480;2023-05-23T08:55:28;30.33;;;27.20;;
1346;SDS011;667;48.796;9.480;2023-05-23T08:57:54;33.60;;;30.20;;
1346;SDS011;667;48.796;9.480;2023-05-23T09:00:23;33.27;;;29.97;;
1346;SDS011;667;48.796;9.480;2023-05-23T09:02:50;33.40;;;30.27;;
1346;SDS011;667;48.796;9.480;2023-05-23T09:05:16;31.67;;;28.63;;
1346;SDS011;667;48.796;9.480;2023-05-23T09:07:42;30.33;;;27.20;;
1346;SDS011;667;48.796;9.480;2023-05-23T09:10:10;32.60;;;29.33;;
1346;SDS011;667;48.796;9.480;2023-05-23T09:12:36;33.07;;;29.97;;
1346;SDS011;667;48.796;9.480;2023-05-23T09:15:05;29.90;;;27.07;;
1346;SDS011;667;48.796;9.480;2023-05-23T09:17:34;30.80;;;27.67;;
1346;SDS011;667;48.796;9.480;2023-05-23T09:20:02;27.23;;;24.73;;
1346;SDS011;667;48.796;9.480;2023-05-23T09:22:29;29.53;;;26.47;;
1346;SDS011;667;48.796;9.480;2023-05-23T09:24:55;29.63;;;26.93;;
1346;SDS011;667;48.796;9.480;2023-05-23T09:27:21;29.13;;;26.33;;
1346;SDS011;667;48.796;9.480;2023-05-23T09:29:48;28.80;;;26.00;;
1346;SDS011;667;48.796;9.480;2023-05-23T09:32:17;28.47;;;25.67;;
1346;SDS011;667;48.796;9.480;2023-05-23T09:37:20;26.60;;;24.20;;
1346;SDS011;667;48.796;9.480;2023-05-23T09:39:49;26.70;;;24.00;;
1346;SDS011;667;48.796;9.480;2023-05-23T09:42:20;23.73;;;21.53;;
1346;SDS011;667;48.796;9.480;2023-05-23T09:44:47;26.67;;;23.97;;
1346;SDS011;667;48.796;9.480;2023-05-23T09:47:14;24.83;;;22.57;;
1346;SDS011;667;48.796;9.480;2023-05-23T09:49:40;25.27;;;22.90;;
1346;SDS011;667;48.796;9.480;2023-05-23T09:52:08;25.33;;;23.13;;
1346;SDS011;667;48.796;9.480;2023-05-23T09:54:33;25.93;;;23.47;;
1346;SDS011;667;48.796;9.480;2023-05-23T09:56:59;24.97;;;22.70;;
1346;SDS011;667;48.796;9.480;2023-05-23T09:59:30;24.50;;;22.30;;
1346;SDS011;667;48.796;9.480;2023-05-23T10:01:59;24.60;;;22.10;;
1346;SDS011;667;48.796;9.480;2023-05-23T10:04:29;23.10;;;20.73;;
1346;SDS011;667;48.796;9.480;2023-05-23T10:06:56;19.77;;;17.90;;
1346;SDS011;667;48.796;9.480;2023-05-23T10:09:25;22.37;;;20.33;;
1346;SDS011;667;48.796;9.480;2023-05-23T10:14:40;21.33;;;19.43;;
1346;SDS011;667;48.796;9.480;2023-05-23T10:17:52;21.80;;;19.80;;
1346;SDS011;667;48.796;9.480;2023-05-23T10:20:10;20.90;;;18.77;;
1346;SDS011;667;48.796;9.480;2023-05-23T10:22:39;19.67;;;17.87;;
1346;SDS011;667;48.796;9.480;2023-05-23T10:25:07;20.17;;;18.17;;
1346;SDS011;667;48.796;9.480;2023-05-23T10:27:34;20.33;;;18.33;;
1346;SDS011;667;48.796;9.480;2023-05-23T10:30:01;18.53;;;16.93;;
1346;SDS011;667;48.796;9.480;2023-05-23T10:32:27;18.80;;;16.80;;
1346;SDS011;667;48.796;9.480;2023-05-23T10:45:53;16.83;;;15.37;;
1346;SDS011;667;48.796;9.480;2023-05-23T10:48:31;17.23;;;15.63;;
1346;SDS011;667;48.796;9.480;2023-05-23T10:51:07;17.27;;;15.67;;
1346;SDS011;667;48.796;9.480;2023-05-23T10:53:39;19.00;;;17.27;;
1346;SDS011;667;48.796;9.480;2023-05-23T10:56:07;18.17;;;16.57;;
1346;SDS011;667;48.796;9.480;2023-05-23T10:58:34;19.37;;;17.67;;
1346;SDS011;667;48.796;9.480;2023-05-23T11:01:05;17.40;;;15.90;;
1346;SDS011;667;48.796;9.480;2023-05-23T11:06:28;18.17;;;16.27;;
1346;SDS011;667;48.796;9.480;2023-05-23T11:09:03;19.60;;;17.80;;
1346;SDS011;667;48.796;9.480;2023-05-23T11:14:18;17.60;;;16.20;;
1346;SDS011;667;48.796;9.480;2023-05-23T11:16:45;18.33;;;16.60;;
1346;SDS011;667;48.796;9.480;2023-05-23T11:21:45;18.80;;;17.20;;
1346;SDS011;667;48.796;9.480;2023-05-23T11:24:13;18.97;;;17.20;;
1346;SDS011;667;48.796;9.480;2023-05-23T11:26:39;17.53;;;15.93;;
1346;SDS011;667;48.796;9.480;2023-05-23T11:29:15;16.07;;;14.70;;
1346;SDS011;667;48.796;9.480;2023-05-23T11:31:40;17.57;;;16.07;;
1346;SDS011;667;48.796;9.480;2023-05-23T11:34:06;17.03;;;15.63;;
1346;SDS011;667;48.796;9.480;2023-05-23T11:36:32;17.13;;;15.53;;
1346;SDS011;667;48.796;9.480;2023-05-23T11:39:00;16.47;;;15.00;;
1346;SDS011;667;48.796;9.480;2023-05-23T11:41:29;16.83;;;15.40;;
1346;SDS011;667;48.796;9.480;2023-05-23T11:43:55;16.90;;;15.43;;
1346;SDS011;667;48.796;9.480;2023-05-23T11:46:22;16.67;;;14.90;;
1346;SDS011;667;48.796;9.480;2023-05-23T11:48:48;17.13;;;15.57;;
1346;SDS011;667;48.796;9.480;2023-05-23T11:51:13;16.50;;;15.10;;
1346;SDS011;667;48.796;9.480;2023-05-23T11:53:39;16.77;;;15.37;;
1346;SDS011;667;48.796;9.480;2023-05-23T11:56:05;17.73;;;16.03;;
1346;SDS011;667;48.796;9.480;2023-05-23T11:58:35;16.77;;;15.10;;
1346;SDS011;667;48.796;9.480;2023-05-23T12:01:05;17.03;;;15.53;;
1346;SDS011;667;48.796;9.480;2023-05-23T12:03:47;16.80;;;15.50;;
1346;SDS011;667;48.796;9.480;2023-05-23T12:06:15;17.37;;;15.90;;
1346;SDS011;667;48.796;9.480;2023-05-23T12:08:45;17.50;;;15.90;;
1346;SDS011;667;48.796;9.480;2023-05-23T12:11:12;17.63;;;14.23;;
1346;SDS011;667;48.796;9.480;2023-05-23T12:13:39;14.13;;;12.93;;
1346;SDS011;667;48.796;9.480;2023-05-23T12:16:06;15.00;;;13.57;;
1346;SDS011;667;48.796;9.480;2023-05-23T12:18:32;13.23;;;12.13;;
1346;SDS011;667;48.796;9.480;2023-05-23T12:21:01;14.37;;;12.90;;
1346;SDS011;667;48.796;9.480;2023-05-23T12:23:29;13.90;;;12.70;;
1346;SDS011;667;48.796;9.480;2023-05-23T12:25:55;14.10;;;12.80;;
1346;SDS011;667;48.796;9.480;2023-05-23T12:28:33;14.73;;;13.53;;
1346;SDS011;667;48.796;9.480;2023-05-23T12:31:34;15.87;;;14.47;;
1346;SDS011;667;48.796;9.480;2023-05-23T12:33:52;14.23;;;12.97;;
1346;SDS011;667;48.796;9.480;2023-05-23T12:36:25;13.37;;;12.27;;
1346;SDS011;667;48.796;9.480;2023-05-23T12:39:00;13.13;;;11.83;;
1346;SDS011;667;48.796;9.480;2023-05-23T12:41:26;14.60;;;13.40;;
1346;SDS011;667;48.796;9.480;2023-05-23T12:43:53;14.17;;;12.97;;
1346;SDS011;667;48.796;9.480;2023-05-23T12:46:21;12.43;;;11.27;;
1346;SDS011;667;48.796;9.480;2023-05-23T12:48:47;12.43;;;11.33;;
1346;SDS011;667;48.796;9.480;2023-05-23T12:51:14;10.70;;;9.73;;
1346;SDS011;667;48.796;9.480;2023-05-23T12:53:40;11.67;;;10.70;;
1346;SDS011;667;48.796;9.480;2023-05-23T12:56:05;11.70;;;10.70;;
1346;SDS011;667;48.796;9.480;2023-05-23T12:58:31;9.60;;;8.83;;
1346;SDS011;667;48.796;9.480;2023-05-23T13:00:58;11.03;;;10.13;;
1346;SDS011;667;48.796;9.480;2023-05-23T13:03:23;10.10;;;9.30;;
1346;SDS011;667;48.796;9.480;2023-05-23T13:05:50;10.87;;;9.90;;
1346;SDS011;667;48.796;9.480;2023-05-23T13:08:16;11.63;;;10.53;;
1346;SDS011;667;48.796;9.480;2023-05-23T13:10:43;10.30;;;9.30;;
1346;SDS011;667;48.796;9.480;2023-05-23T13:13:09;11.00;;;10.10;;
1346;SDS011;667;48.796;9.480;2023-05-23T13:15:35;10.53;;;9.67;;
1346;SDS011;667;48.796;9.480;2023-05-23T13:18:01;10.30;;;9.47;;
1346;SDS011;667;48.796;9.480;2023-05-23T13:20:27;11.57;;;10.50;;
1346;SDS011;667;48.796;9.480;2023-05-23T13:22:55;10.67;;;9.63;;
1346;SDS011;667;48.796;9.480;2023-05-23T13:25:25;10.33;;;9.43;;
1346;SDS011;667;48.796;9.480;2023-05-23T13:27:51;9.97;;;9.07;;
1346;SDS011;667;48.796;9.480;2023-05-23T13:30:17;10.70;;;9.80;;
1346;SDS011;667;48.796;9.480;2023-05-23T13:32:43;10.53;;;9.63;;
1346;SDS011;667;48.796;9.480;2023-05-23T13:35:09;10.30;;;9.50;;
1346;SDS011;667;48.796;9.480;2023-05-23T13:37:35;10.37;;;9.57;;
1346;SDS011;667;48.796;9.480;2023-05-23T13:40:02;9.57;;;8.83;;
1346;SDS011;667;48.796;9.480;2023-05-23T13:42:28;10.23;;;9.33;;
1346;SDS011;667;48.796;9.480;2023-05-23T13:44:54;8.70;;;8.00;;
1346;SDS011;667;48.796;9.480;2023-05-23T13:47:20;9.20;;;8.30;;
1346;SDS011;667;48.796;9.480;2023-05-23T13:49:46;8.90;;;8.17;;
1346;SDS011;667;48.796;9.480;2023-05-23T13:52:12;8.60;;;7.77;;
1346;SDS011;667;48.796;9.480;2023-05-23T13:54:37;8.87;;;7.47;;
1346;SDS011;667;48.796;9.480;2023-05-23T13:57:03;8.73;;;8.03;;
1346;SDS011;667;48.796;9.480;2023-05-23T13:59:29;7.70;;;7.10;;
1346;SDS011;667;48.796;9.480;2023-05-23T14:01:55;8.33;;;7.67;;
1346;SDS011;667;48.796;9.480;2023-05-23T14:04:20;8.00;;;7.40;;
1346;SDS011;667;48.796;9.480;2023-05-23T14:06:47;7.43;;;6.83;;
1346;SDS011;667;48.796;9.480;2023-05-23T14:09:13;8.93;;;8.13;;
1346;SDS011;667;48.796;9.480;2023-05-23T14:11:38;7.93;;;7.23;;
1346;SDS011;667;48.796;9.480;2023-05-23T14:14:04;8.30;;;7.50;;
1346;SDS011;667;48.796;9.480;2023-05-23T14:16:30;8.37;;;7.10;;
1346;SDS011;667;48.796;9.480;2023-05-23T14:18:55;9.83;;;7.63;;
1346;SDS011;667;48.796;9.480;2023-05-23T14:21:21;7.40;;;6.80;;
1346;SDS011;667;48.796;9.480;2023-05-23T14:23:47;6.93;;;6.33;;
1346;SDS011;667;48.796;9.480;2023-05-23T14:26:12;7.80;;;7.10;;
1346;SDS011;667;48.796;9.480;2023-05-23T14:28:38;7.33;;;6.73;;
1346;SDS011;667;48.796;9.480;2023-05-23T14:31:04;7.40;;;6.70;;
1346;SDS011;667;48.796;9.480;2023-05-23T14:33:30;7.17;;;6.47;;
1346;SDS011;667;48.796;9.480;2023-05-23T14:35:56;8.30;;;6.77;;
1346;SDS011;667;48.796;9.480;2023-05-23T14:38:22;6.43;;;6.03;;
1346;SDS011;667;48.796;9.480;2023-05-23T14:40:48;6.60;;;6.00;;
1346;SDS011;667;48.796;9.480;2023-05-23T14:43:14;6.87;;;6.37;;
1346;SDS011;667;48.796;9.480;2023-05-23T14:45:40;7.17;;;6.57;;
1346;SDS011;667;48.796;9.480;2023-05-23T14:48:06;6.80;;;6.30;;
1346;SDS011;667;48.796;9.480;2023-05-23T14:50:31;6.23;;;5.70;;
1346;SDS011;667;48.796;9.480;2023-05-23T14:52:57;6.67;;;6.07;;
1346;SDS011;667;48.796;9.480;2023-05-23T14:55:23;6.30;;;5.80;;
1346;SDS011;667;48.796;9.480;2023-05-23T14:57:49;6.63;;;6.03;;
1346;SDS011;667;48.796;9.480;2023-05-23T15:00:15;6.63;;;6.03;;
1346;SDS011;667;48.796;9.480;2023-05-23T15:02:41;5.60;;;5.20;;
1346;SDS011;667;48.796;9.480;2023-05-23T15:05:07;6.13;;;5.70;;
1346;SDS011;667;48.796;9.480;2023-05-23T15:07:33;6.60;;;6.10;;
1346;SDS011;667;48.796;9.480;2023-05-23T15:09:59;6.97;;;6.37;;
1346;SDS011;667;48.796;9.480;2023-05-23T15:12:26;6.27;;;5.87;;
1346;SDS011;667;48.796;9.480;2023-05-23T15:14:52;5.47;;;5.07;;
1346;SDS011;667;48.796;9.480;2023-05-23T15:17:18;5.70;;;5.20;;
1346;SDS011;667;48.796;9.480;2023-05-23T15:19:46;5.53;;;5.13;;
1346;SDS011;667;48.796;9.480;2023-05-23T15:22:11;5.90;;;5.10;;
1346;SDS011;667;48.796;9.480;2023-05-23T15:24:37;5.50;;;5.10;;
1346;SDS011;667;48.796;9.480;2023-05-23T15:27:03;6.33;;;5.83;;
1346;SDS011;667;48.796;9.480;2023-05-23T15:29:29;6.30;;;5.73;;
1346;SDS011;667;48.796;9.480;2023-05-23T15:31:57;5.77;;;5.37;;
1346;SDS011;667;48.796;9.480;2023-05-23T15:34:23;4.83;;;4.43;;